Aérodrome :
LOGIN :

S'inscrire | Disclaimer

   EN    FR    IT 

 










Légende :    VFR   VFR Marginal   IFR   IFR Intensif   IFR Très Intensif
Visi : 
Plafond : 
>= 8 km
>= 3000ft
5 à 8 km
1000 à 3000 ft
1500m à 5 km
500 à 1000 ft
800 à 1500m
200 à 500 ft
< 800m
< 200 ft
Symboles :   Orages  Brouillard  Fortes neiges  Fortes précipitations  Vent > 20 kt
SIGMETs :   Divers  Orages  Givrage  Turbulence  Onde Orograph.  Cendres Volcan.






- Altitude de l'aérodrome : 84 ft


LFBC - Cazaux

DERNIER METAR :
  • 151830Z AUTO 22001KT 9000 ///TCU 04/03 Q1005

METARs EXPIRÉS :
  • 151800Z AUTO 24003KT 9999 ///TCU 04/03 Q1004
  • 151730Z AUTO 00000KT CAVOK 05/03 Q1004
  • 151700Z AUTO 04003KT 9999 FEW047 BKN140 BKN160 06/04 Q1003
  • 151630Z AUTO 04002KT CAVOK 07/04 Q1003
  • 151600Z AUTO VRB03KT CAVOK 07/04 Q1003

TAF TAF LFBC
Valide du 15 à 15h jusqu'au 16 à 15h UTC


151400Z 1515/1615 05005KT 9999 SCT018 BKN040
BECMG 1523/1601 26010KT SCT030TCU
TEMPO 1523/1615 31015G30KT 4000 SHRA BKN025TCU
PROB30
TEMPO 1603/1615 VRB20G35KT 2000 TSRA BKN015CB



MET'MAP, la Météo Aéronautique d'un coup d'oeil ! - Copyright ORBIFLY Décembre 2007 - Disclaimer

ORBIFLY MET'MAP TEAM :

Programmation & Développement : Alexandra Zaïnal
Conception & Développement : Baudouin d'Aumeries
Co-Programmation & Développement : Marc-Olivier Méhu
Soutien technique & logistique : Manuel Goepfert

Contact : metmap@orbifly.com




SOURCES & CREDITS :

   NOAA